Meadow Bridge, West Virginia
Current Conditions -  °F | °C
As of 1:51 AM on Wednesday 28 Jan 2015 (Local Time) from KBKW Reporting Station
Overcast Overcast  
Wind Chill:   Ceiling: 1900
Heat Index: 16°   Visibility: 8mi
Dew Point: 10°   Wind: 8mph
Humidity: 77%   Direction: 340°NNW
Pressure: 30.08"   Gusts: NA
Location:  37.86°N, 80.85°W
Report Text: KBKW 280651Z AUTO 34007KT 8SM OVC019 M09/M12 A3008 RMK AO2 SNE49 SLP228 P0000 T10891122
Loading
Personal Weather Stations






























Interactive Weather Map New forecast layout! Learn more

10-Day Weather Forecast

Advertisements
Track Severe Weather on mobile